Flight Track Log - Related Links

Times and Time Zones

All times are in EDT time to prevent confusion due to time zone crossing. See the EJA312 flight status page for this flight to view local times or setup timezone preferences in your user account.

Time Position Orientation Groundspeed Altitude Reporting Facility
EDT Latitude Longitude Course Direction KTS MPH feet Rate Location/Type
Sat 01:09:26 PM 44.4719 -68.4656 258° West 189 217 6,900  Level Boston Center
Sat 01:11:27 PM 44.4494 -68.6622 261° West 249 287 14,200 3,381 Climbing Boston Center
Sat 01:12:27 PM 44.4381 -68.7647 261° West 266 306 17,100 2,695 Climbing Boston Center
Sat 01:13:25 PM 44.4250 -68.8817 261° West 282 325 19,500 2,521 Climbing Boston Center
Sat 01:14:26 PM 44.4119 -68.9958 261° West 300 345 22,100 2,380 Climbing Boston Center
Sat 01:15:26 PM 44.3989 -69.1217 262° West 315 362 24,300 2,182 Climbing Boston Center
Sat 01:16:27 PM 44.3839 -69.2503 261° West 327 376 26,500 2,132 Climbing Boston Center
Sat 01:17:27 PM 44.3686 -69.3819 261° West 339 390 28,600 1,780 Climbing Boston Center
Sat 01:18:25 PM 44.3553 -69.5044 261° West 346 398 30,000 1,678 Climbing Boston Center
Sat 01:19:25 PM 44.3378 -69.6447 260° West 362 417 31,900 1,934 Climbing Boston Center
Sat 01:20:26 PM 44.3225 -69.7847 261° West 368 423 33,900 1,033 Climbing Boston Center
Sat 01:21:27 PM 44.3153 -69.9303 266° West 373 429 34,000 303 Climbing Boston Center
Sat 01:22:25 PM 44.3103 -70.0900 268° West 398 458 34,500 1,008 Climbing Boston Center
Sat 01:23:26 PM 44.3050 -70.2469 267° West 405 466 36,000 1,488 Climbing Boston Center
Sat 01:24:26 PM 44.2994 -70.3981 267° West 405 466 37,500 1,488 Climbing Boston Center
Sat 01:25:27 PM 44.2936 -70.5461 267° West 398 458 39,000 1,261 Climbing Boston Center
Sat 01:26:25 PM 44.2875 -70.6914 267° West 393 452 40,000 508 Climbing Boston Center
Sat 01:27:25 PM 44.2836 -70.8364 268° West 386 444 40,000  Level Boston Center
Sat 01:28:25 PM 44.2772 -70.9933 267° West 391 450 40,000  Level Boston Center
Sat 01:29:26 PM 44.2708 -71.1672 267° West 404 465 40,000  Level Boston Center
Sat 01:30:26 PM 44.2622 -71.3328 266° West 417 480 40,000 -545 Level Boston Center
Sat 01:31:27 PM 44.2553 -71.4981 267° West 430 495 38,900 -984 Descending Boston Center
Sat 01:32:28 PM 44.2483 -71.6633 267° West 430 495 38,000 -458 Descending Boston Center
Sat 01:33:25 PM 44.2389 -71.8317 266° West 430 495 38,000  Level Boston Center
Sat 01:34:26 PM 44.2292 -71.9997 265° West 435 501 38,000  Level Boston Center
Sat 01:35:27 PM 44.2192 -72.1533 265° West 440 506 38,000  Level Boston Center
Sat 01:36:26 PM 44.2114 -72.3183 266° West 440 506 38,000  Level Boston Center
Sat 01:37:27 PM 44.2031 -72.4892 266° West 446 513 38,000  Level Boston Center
Sat 01:38:27 PM 44.1944 -72.6603 266° West 440 506 38,000  Level Boston Center
Sat 01:39:27 PM 44.1836 -72.8281 265° West 440 506 38,000  Level Boston Center
Sat 01:40:26 PM 44.1744 -72.9958 266° West 440 506 38,000  Level Boston Center
Sat 01:41:26 PM 44.1631 -73.1664 265° West 445 512 38,000  Level Boston Center
Sat 01:42:27 PM 44.1536 -73.3369 266° West 445 512 38,000  Level Boston Center
Sat 01:43:25 PM 44.1439 -73.5075 266° West 445 512 38,000  Level Boston Center
Sat 01:44:25 PM 44.1317 -73.6925 265° West 445 512 38,000  Level Boston Center
Sat 01:45:26 PM 44.1214 -73.8631 265° West 440 506 38,000  Level Boston Center
Sat 01:46:26 PM 44.1108 -74.0333 265° West 440 506 38,000  Level Boston Center
Sat 01:47:27 PM 44.1003 -74.1775 264° West 440 506 38,000  Level Boston Center
Sat 01:48:27 PM 44.0892 -74.3478 265° West 440 506 38,000  Level Boston Center
Sat 01:49:25 PM 44.0758 -74.5122 264° West 440 506 38,000  Level Boston Center
Sat 01:50:25 PM 44.0644 -74.6764 265° West 440 506 38,000  Level Boston Center
Sat 01:51:26 PM 44.0528 -74.8464 265° West 440 506 38,000  Level Boston Center
Sat 01:52:26 PM 44.0408 -75.0106 264° West 440 506 38,000  Level Boston Center
Sat 01:53:27 PM 44.0267 -75.1775 263° West 440 506 38,000  Level Boston Center
Sat 01:54:26 PM 44.0136 -75.3617 264° West 445 512 38,000  Level Boston Center
Sat 01:55:26 PM 44.0011 -75.5256 264° West 440 506 38,000  Level Boston Center
Sat 01:56:27 PM 43.9881 -75.6925 264° West 440 506 38,000  Level Boston Center
Sat 01:57:27 PM 43.9728 -75.8589 263° West 440 506 38,000  Level Boston Center
Sat 01:58:27 PM 43.9594 -76.0225 264° West 440 506 38,000  Level Boston Center
Sat 01:59:25 PM 43.9481 -76.1892 265° West 440 506 38,000  Level Boston Center
Sat 02:00:25 PM 43.9342 -76.3500 263° West 440 506 38,000  Level Boston Center
Sat 02:01:26 PM 43.9222 -76.5136 264° West 440 506 38,000  Level Boston Center
Sat 02:02:40 PM 43.9000 -76.7000 261° West 420 483 38,000  Level Toronto Center
Sat 02:03:40 PM 43.8833 -76.8500 261° West 420 483 38,000  Level Toronto Center
Sat 02:04:40 PM 43.8667 -77.0167 262° West 420 483 38,000  Level Toronto Center
Sat 02:05:40 PM 43.8500 -77.1833 262° West 420 483 38,000  Level Toronto Center
Sat 02:06:40 PM 43.8333 -77.3500 262° West 420 483 38,000  Level Toronto Center
Sat 02:07:40 PM 43.8333 -77.5000 270° West 420 483 38,000  Level Toronto Center
Sat 02:08:40 PM 43.8167 -77.6667 262° West 420 483 38,000  Level Toronto Center
Sat 02:09:40 PM 43.8000 -77.8333 262° West 420 483 38,000  Level Toronto Center
Sat 02:10:40 PM 43.7833 -77.9667 260° West 420 483 38,000  Level Toronto Center
Sat 02:11:40 PM 43.7500 -78.1500 256° West 420 483 38,000  Level Toronto Center
Sat 02:12:40 PM 43.7333 -78.3167 262° West 420 483 38,000  Level Toronto Center
Sat 02:13:40 PM 43.7167 -78.4833 262° West 420 483 38,000  Level Toronto Center
Sat 02:14:40 PM 43.7167 -78.6333 270° West 420 483 38,000  Level Toronto Center
Sat 02:15:40 PM 43.7000 -78.7833 261° West 420 483 38,000  Level Toronto Center
Sat 02:16:40 PM 43.6833 -78.9667 263° West 420 483 38,000  Level Toronto Center
Sat 02:17:40 PM 43.6667 -79.1333 262° West 420 483 38,000  Level Toronto Center
Sat 02:18:40 PM 43.6500 -79.2667 260° West 420 483 38,000  Level Toronto Center
Sat 02:19:40 PM 43.6333 -79.4333 262° West 420 483 38,000  Level Toronto Center
Sat 02:20:40 PM 43.6167 -79.5833 261° West 430 495 38,000  Level Toronto Center
Sat 02:21:40 PM 43.6000 -79.7500 262° West 430 495 38,000  Level Toronto Center
Sat 02:22:40 PM 43.5833 -79.9167 262° West 420 483 38,000  Level Toronto Center
Sat 02:23:40 PM 43.5667 -80.0667 261° West 420 483 38,000  Level Toronto Center
Sat 02:24:40 PM 43.5500 -80.2333 262° West 420 483 38,000  Level Toronto Center
Sat 02:25:40 PM 43.5333 -80.4000 262° West 420 483 38,000  Level Toronto Center
Sat 02:26:40 PM 43.5167 -80.5500 261° West 420 483 38,000  Level Toronto Center
Sat 02:27:40 PM 43.5000 -80.7167 262° West 420 483 38,000  Level Toronto Center
Sat 02:28:40 PM 43.4667 -80.8667 253° West 420 483 38,000  Level Toronto Center
Sat 02:29:40 PM 43.4500 -81.0333 262° West 420 483 38,000  Level Toronto Center
Sat 02:30:40 PM 43.4333 -81.2000 262° West 420 483 38,000  Level Toronto Center
Sat 02:31:40 PM 43.4167 -81.3500 261° West 420 483 38,000  Level Toronto Center
Sat 02:32:40 PM 43.4000 -81.5000 261° West 420 483 38,000  Level Toronto Center
Sat 02:33:40 PM 43.3833 -81.6500 261° West 420 483 38,000  Level Toronto Center
Sat 02:34:40 PM 43.3667 -81.8167 262° West 420 483 38,000  Level Toronto Center
Sat 02:35:40 PM 43.3333 -81.9667 253° West 410 472 38,000  Level Toronto Center
Sat 02:36:40 PM 43.3167 -82.1333 262° West 420 483 38,000  Level Toronto Center
Sat 02:37:40 PM 43.3000 -82.2833 261° West 420 483 38,000  Level Toronto Center
Sat 02:38:42 PM 43.2925 -82.4267 266° West 415 478 38,000  Level Cleveland Center
Sat 02:39:44 PM 43.2686 -82.6128 260° West 415 478 38,000  Level Cleveland Center
Sat 02:40:46 PM 43.2422 -82.7644 257° West 411 473 38,000  Level Cleveland Center
Sat 02:41:48 PM 43.2014 -82.9103 249° West 412 474 38,000  Level Cleveland Center
Sat 02:42:50 PM 43.1603 -83.0536 249° West 408 470 38,000  Level Cleveland Center
Sat 02:43:51 PM 43.1200 -83.1978 249° West 407 468 38,000  Level Cleveland Center
Sat 02:44:53 PM 43.0811 -83.3431 250° West 410 472 38,000  Level Cleveland Center
Sat 02:45:55 PM 43.0333 -83.5144 249° West 407 468 38,000  Level Cleveland Center
Sat 02:46:57 PM 42.9914 -83.6569 248° West 407 468 38,000 -290 Level Cleveland Center
Sat 02:47:59 PM 42.9542 -83.8019 251° West 407 468 37,400 -774 Descending Cleveland Center
Sat 02:49:01 PM 42.9253 -83.9494 255° West 406 467 36,400 -968 Descending Cleveland Center
Sat 02:50:03 PM 42.8956 -84.0986 255° West 410 472 35,400 -1,065 Descending Cleveland Center
Sat 02:51:05 PM 42.8592 -84.2761 254° West 409 471 34,200 -968 Descending Cleveland Center
Sat 02:52:07 PM 42.8319 -84.4083 254° West 411 473 33,400 -938 Descending Cleveland Center
Sat 02:53:13 PM 42.7944 -84.5894 254° West 412 474 32,200 -1,031 Descending Chicago Center
Sat 02:54:15 PM 42.7631 -84.7392 254° West 412 474 31,200 -968 Descending Chicago Center
Sat 02:55:17 PM 42.7303 -84.8903 254° West 416 479 30,200 -581 Descending Chicago Center
Sat 02:56:19 PM 42.6972 -85.0450 254° West 423 487 30,000 -194 Descending Chicago Center
Sat 02:57:21 PM 42.6642 -85.1994 254° West 425 489 29,800 -1,113 Descending Chicago Center
Sat 02:58:23 PM 42.6247 -85.3836 254° West 422 486 27,700 -1,790 Descending Chicago Center
Sat 02:59:25 PM 42.5917 -85.5364 254° West 421 484 26,100 -1,597 Descending Chicago Center
Sat 03:00:27 PM 42.5572 -85.6942 254° West 429 494 24,400 -1,597 Descending Chicago Center
Sat 03:01:29 PM 42.5225 -85.8447 253° West 420 483 22,800 -1,548 Descending Chicago Center
Sat 03:02:31 PM 42.4908 -85.9897 254° West 402 463 21,200 -1,355 Descending Chicago Center
Sat 03:03:33 PM 42.4631 -86.1358 256° West 401 461 20,000 -581 Descending Chicago Center
Sat 03:04:35 PM 42.4561 -86.2886 267° West 404 465 20,000  Level Chicago Center
Sat 03:05:37 PM 42.3931 -86.4253 238° Southwest 399 459 20,000  Level Chicago Center
Sat 03:06:39 PM 42.2839 -86.4069 173° South 398 458 20,000  Level Chicago Center
Sat 03:07:41 PM 42.1664 -86.3878 173° South 401 461 20,000  Level Chicago Center
Sat 03:08:43 PM 42.0547 -86.3689 173° South 405 466 20,000  Level Chicago Center
Sat 03:09:45 PM 41.9453 -86.3489 172° South 402 463 20,000  Level Chicago Center
Sat 03:10:47 PM 41.8344 -86.3306 173° South 402 463 20,000  Level Chicago Center
Sat 03:11:49 PM 41.7319 -86.3664 195° South 395 455 20,000  Level Chicago Center
Sat 03:12:51 PM 41.6339 -86.4339 207° Southwest 397 457 20,000 -439 Level Chicago Center
Sat 03:13:52 PM 41.5178 -86.5144 207° Southwest 396 456 19,100 -1,171 Descending Chicago Center
Sat 03:14:54 PM 41.4250 -86.5781 207° Southwest 379 436 17,600 -1,500 Descending Chicago Center
Sat 03:15:56 PM 41.3325 -86.6428 208° Southwest 377 434 16,000 -1,645 Descending Chicago Center
Sat 03:16:58 PM 41.2664 -86.7661 235° Southwest 364 419 14,200 -1,645 Descending Chicago Center
Sat 03:18:00 PM 41.2133 -86.8764 237° Southwest 356 410 12,600 -1,500 Descending Chicago Center
Sat 03:19:02 PM 41.1881 -86.9958 254° West 354 407 11,100 -1,113 Descending Chicago Center
Sat 03:20:04 PM 41.2008 -87.1219 278° West 347 399 10,300 -968 Descending Chicago Center
Sat 03:21:06 PM 41.2117 -87.2203 278° West 281 323 9,100 -1,113 Descending Chicago Center
Sat 03:22:08 PM 41.2239 -87.3372 278° West 268 308 8,000 -532 Descending Chicago Center
Sat 03:23:10 PM 41.2336 -87.4364 277° West 271 312 8,000 -97 Level Chicago Center
Sat 03:24:12 PM 41.2442 -87.5356 278° West 272 313 7,800 -581 Descending Chicago Center
Sat 03:25:14 PM 41.2539 -87.6303 278° West 264 304 6,800 -1,258 Descending Chicago Center
Sat 03:26:16 PM 41.2633 -87.7222 278° West 259 298 5,200 -1,355 Descending Chicago Center
Sat 03:27:18 PM 41.2794 -87.8103 284° West 260 299 4,000 -581 Descending Chicago Center
Sat 03:28:20 PM 41.3208 -87.8869 306° West 258 297 4,000  Level Chicago Center
Sat 03:29:21 PM 41.3689 -87.9792 305° West 254 292 4,000  Level Chicago Center
Sat 03:30:23 PM 41.4122 -88.0575 306° West 256 295 4,000  Level Chicago Center
Sat 03:31:25 PM 41.4706 -88.1306 317° Northwest 264 304 4,000  Level Chicago Center
Sat 03:32:27 PM 41.5281 -88.1914 322° Northwest 265 305 4,000  Level Chicago Center
Sat 03:33:29 PM 41.5856 -88.2528 321° Northwest 266 306 4,000  Level Chicago Center
Sat 03:34:31 PM 41.6428 -88.3131 322° Northwest 265 305 4,000  Level Chicago Center
Sat 03:35:33 PM 41.6989 -88.3731 321° Northwest 263 303 4,000 -242 Level Chicago Center
Sat 03:36:35 PM 41.7569 -88.4339 322° Northwest 263 303 3,500 -484 Descending Chicago Center
Sat 03:37:37 PM 41.8286 -88.4756 337° Northwest 255 293 3,000 -435 Descending Chicago Center
Sat 03:38:39 PM 41.8847 -88.4719 North 221 254 2,600 -194 Descending Chicago Center
Sat 03:39:41 PM 41.9150 -88.4214 51° Northeast 209 241 2,600 -145 Level Chicago Center
Sat 03:40:43 PM 41.9236 -88.3586 80° East 189 217 2,300 -484 Descending Chicago Center
Sat 03:41:45 PM 41.9158 -88.3072 101° East 158 182 1,600 -484 Descending Chicago Center
Sat 03:42:47 PM 41.9286 -88.2661 67° East 145 167 1,300 -242 Descending Chicago Center
Sat 03:43:49 PM 41.9031 -88.2433 146° Southeast 144 166 1,100 -194 Descending Chicago Center

Login

Don't have an account? Register now (free) for customized features, flight alerts, and more!